sensor_id;sensor_type;location;lat;lon;timestamp;P1;durP1;ratioP1;P2;durP2;ratioP2
42616;SDS011;28250;52.320;0.360;2022-08-24T00:01:03;2.95;;;2.20;;
42616;SDS011;28250;52.320;0.360;2022-08-24T00:03:33;2.35;;;2.15;;
42616;SDS011;28250;52.320;0.360;2022-08-24T00:06:00;2.58;;;2.00;;
42616;SDS011;28250;52.320;0.360;2022-08-24T00:08:30;2.10;;;1.80;;
42616;SDS011;28250;52.320;0.360;2022-08-24T00:10:57;1.95;;;1.80;;
42616;SDS011;28250;52.320;0.360;2022-08-24T00:13:24;4.57;;;2.60;;
42616;SDS011;28250;52.320;0.360;2022-08-24T00:15:52;2.42;;;2.20;;
42616;SDS011;28250;52.320;0.360;2022-08-24T00:20:46;2.45;;;2.08;;
42616;SDS011;28250;52.320;0.360;2022-08-24T00:23:13;2.22;;;2.03;;
42616;SDS011;28250;52.320;0.360;2022-08-24T00:25:41;3.47;;;2.60;;
42616;SDS011;28250;52.320;0.360;2022-08-24T00:28:08;2.22;;;1.98;;
42616;SDS011;28250;52.320;0.360;2022-08-24T00:30:35;3.53;;;2.15;;
42616;SDS011;28250;52.320;0.360;2022-08-24T00:33:02;2.15;;;1.95;;
42616;SDS011;28250;52.320;0.360;2022-08-24T00:35:29;2.55;;;2.35;;
42616;SDS011;28250;52.320;0.360;2022-08-24T00:37:57;2.55;;;2.08;;
42616;SDS011;28250;52.320;0.360;2022-08-24T00:40:26;3.55;;;2.30;;
42616;SDS011;28250;52.320;0.360;2022-08-24T00:42:59;2.67;;;1.95;;
42616;SDS011;28250;52.320;0.360;2022-08-24T00:45:29;3.67;;;2.53;;
42616;SDS011;28250;52.320;0.360;2022-08-24T00:48:00;3.15;;;2.15;;
42616;SDS011;28250;52.320;0.360;2022-08-24T00:50:36;3.63;;;2.25;;
42616;SDS011;28250;52.320;0.360;2022-08-24T00:53:10;2.22;;;1.88;;
42616;SDS011;28250;52.320;0.360;2022-08-24T00:56:02;3.30;;;1.75;;
42616;SDS011;28250;52.320;0.360;2022-08-24T00:58:35;3.38;;;2.50;;
42616;SDS011;28250;52.320;0.360;2022-08-24T01:01:10;3.33;;;2.05;;
42616;SDS011;28250;52.320;0.360;2022-08-24T01:03:39;2.92;;;1.90;;
42616;SDS011;28250;52.320;0.360;2022-08-24T01:06:09;2.00;;;1.80;;
42616;SDS011;28250;52.320;0.360;2022-08-24T01:08:37;2.30;;;2.05;;
42616;SDS011;28250;52.320;0.360;2022-08-24T01:11:11;2.75;;;2.10;;
42616;SDS011;28250;52.320;0.360;2022-08-24T01:13:42;2.60;;;2.07;;
42616;SDS011;28250;52.320;0.360;2022-08-24T01:16:12;2.42;;;2.00;;
42616;SDS011;28250;52.320;0.360;2022-08-24T01:19:01;3.08;;;2.03;;
42616;SDS011;28250;52.320;0.360;2022-08-24T01:21:33;2.65;;;2.30;;
42616;SDS011;28250;52.320;0.360;2022-08-24T01:24:11;2.80;;;2.10;;
42616;SDS011;28250;52.320;0.360;2022-08-24T01:26:39;2.72;;;2.13;;
42616;SDS011;28250;52.320;0.360;2022-08-24T01:29:12;3.28;;;2.20;;
42616;SDS011;28250;52.320;0.360;2022-08-24T01:31:47;3.10;;;2.60;;
42616;SDS011;28250;52.320;0.360;2022-08-24T01:34:14;3.15;;;2.42;;
42616;SDS011;28250;52.320;0.360;2022-08-24T01:36:42;4.63;;;2.60;;
42616;SDS011;28250;52.320;0.360;2022-08-24T01:39:15;3.47;;;2.58;;
42616;SDS011;28250;52.320;0.360;2022-08-24T01:41:47;3.47;;;2.65;;
42616;SDS011;28250;52.320;0.360;2022-08-24T01:44:15;2.85;;;2.45;;
42616;SDS011;28250;52.320;0.360;2022-08-24T01:46:44;3.15;;;2.40;;
42616;SDS011;28250;52.320;0.360;2022-08-24T01:49:14;3.53;;;2.53;;
42616;SDS011;28250;52.320;0.360;2022-08-24T01:51:41;3.45;;;2.67;;
42616;SDS011;28250;52.320;0.360;2022-08-24T01:54:11;3.78;;;2.88;;
42616;SDS011;28250;52.320;0.360;2022-08-24T01:56:39;3.83;;;2.78;;
42616;SDS011;28250;52.320;0.360;2022-08-24T01:59:06;3.33;;;2.90;;
42616;SDS011;28250;52.320;0.360;2022-08-24T02:01:37;2.83;;;2.45;;
42616;SDS011;28250;52.320;0.360;2022-08-24T02:04:09;3.50;;;2.70;;
42616;SDS011;28250;52.320;0.360;2022-08-24T02:06:36;4.13;;;3.20;;
42616;SDS011;28250;52.320;0.360;2022-08-24T02:09:06;4.18;;;3.22;;
42616;SDS011;28250;52.320;0.360;2022-08-24T02:11:33;5.32;;;3.45;;
42616;SDS011;28250;52.320;0.360;2022-08-24T02:14:02;3.45;;;2.85;;
42616;SDS011;28250;52.320;0.360;2022-08-24T02:16:29;5.68;;;3.80;;
42616;SDS011;28250;52.320;0.360;2022-08-24T02:18:56;4.07;;;2.88;;
42616;SDS011;28250;52.320;0.360;2022-08-24T02:21:23;4.30;;;3.58;;
42616;SDS011;28250;52.320;0.360;2022-08-24T02:23:50;5.00;;;3.55;;
42616;SDS011;28250;52.320;0.360;2022-08-24T02:26:17;5.05;;;3.70;;
42616;SDS011;28250;52.320;0.360;2022-08-24T02:28:44;5.68;;;3.30;;
42616;SDS011;28250;52.320;0.360;2022-08-24T02:31:11;4.55;;;3.65;;
42616;SDS011;28250;52.320;0.360;2022-08-24T02:33:41;7.45;;;3.97;;
42616;SDS011;28250;52.320;0.360;2022-08-24T02:36:10;5.97;;;4.15;;
42616;SDS011;28250;52.320;0.360;2022-08-24T02:38:39;5.05;;;4.05;;
42616;SDS011;28250;52.320;0.360;2022-08-24T02:41:11;5.53;;;3.92;;
42616;SDS011;28250;52.320;0.360;2022-08-24T02:43:38;5.03;;;4.13;;
42616;SDS011;28250;52.320;0.360;2022-08-24T02:48:31;4.22;;;3.40;;
42616;SDS011;28250;52.320;0.360;2022-08-24T02:50:59;4.13;;;3.60;;
42616;SDS011;28250;52.320;0.360;2022-08-24T02:53:27;4.93;;;3.80;;
42616;SDS011;28250;52.320;0.360;2022-08-24T02:55:53;3.72;;;3.17;;
42616;SDS011;28250;52.320;0.360;2022-08-24T03:00:47;4.57;;;3.83;;
42616;SDS011;28250;52.320;0.360;2022-08-24T03:03:18;3.75;;;3.17;;
42616;SDS011;28250;52.320;0.360;2022-08-24T03:05:45;3.63;;;2.95;;
42616;SDS011;28250;52.320;0.360;2022-08-24T03:08:12;3.55;;;2.85;;
42616;SDS011;28250;52.320;0.360;2022-08-24T03:10:40;4.80;;;3.10;;
42616;SDS011;28250;52.320;0.360;2022-08-24T03:13:06;5.38;;;3.42;;
42616;SDS011;28250;52.320;0.360;2022-08-24T03:15:33;4.20;;;3.55;;
42616;SDS011;28250;52.320;0.360;2022-08-24T03:20:28;5.22;;;3.15;;
42616;SDS011;28250;52.320;0.360;2022-08-24T03:25:22;4.40;;;3.22;;
42616;SDS011;28250;52.320;0.360;2022-08-24T03:27:51;4.85;;;3.40;;
42616;SDS011;28250;52.320;0.360;2022-08-24T03:30:19;3.72;;;3.17;;
42616;SDS011;28250;52.320;0.360;2022-08-24T03:32:47;4.05;;;3.60;;
42616;SDS011;28250;52.320;0.360;2022-08-24T03:35:15;3.97;;;3.15;;
42616;SDS011;28250;52.320;0.360;2022-08-24T03:37:43;5.55;;;3.13;;
42616;SDS011;28250;52.320;0.360;2022-08-24T03:40:11;3.53;;;2.80;;
42616;SDS011;28250;52.320;0.360;2022-08-24T03:42:38;2.85;;;2.60;;
42616;SDS011;28250;52.320;0.360;2022-08-24T03:45:06;4.43;;;2.70;;
42616;SDS011;28250;52.320;0.360;2022-08-24T03:47:34;4.05;;;2.70;;
42616;SDS011;28250;52.320;0.360;2022-08-24T03:50:01;5.00;;;2.97;;
42616;SDS011;28250;52.320;0.360;2022-08-24T03:52:30;3.70;;;2.72;;
42616;SDS011;28250;52.320;0.360;2022-08-24T03:54:57;3.92;;;2.55;;
42616;SDS011;28250;52.320;0.360;2022-08-24T03:57:24;3.78;;;2.55;;
42616;SDS011;28250;52.320;0.360;2022-08-24T03:59:51;2.67;;;2.40;;
42616;SDS011;28250;52.320;0.360;2022-08-24T04:02:17;3.67;;;2.47;;
42616;SDS011;28250;52.320;0.360;2022-08-24T04:04:44;3.42;;;2.72;;
42616;SDS011;28250;52.320;0.360;2022-08-24T04:07:11;3.38;;;2.55;;
42616;SDS011;28250;52.320;0.360;2022-08-24T04:09:38;3.55;;;2.50;;
42616;SDS011;28250;52.320;0.360;2022-08-24T04:12:04;3.08;;;2.30;;
42616;SDS011;28250;52.320;0.360;2022-08-24T04:14:31;3.60;;;2.58;;
42616;SDS011;28250;52.320;0.360;2022-08-24T04:17:03;2.83;;;2.42;;
42616;SDS011;28250;52.320;0.360;2022-08-24T04:19:35;2.97;;;1.80;;
42616;SDS011;28250;52.320;0.360;2022-08-24T04:22:02;3.05;;;2.35;;
42616;SDS011;28250;52.320;0.360;2022-08-24T04:24:29;2.95;;;2.42;;
42616;SDS011;28250;52.320;0.360;2022-08-24T04:26:56;2.85;;;2.50;;
42616;SDS011;28250;52.320;0.360;2022-08-24T04:31:51;3.30;;;2.28;;
42616;SDS011;28250;52.320;0.360;2022-08-24T04:34:19;2.55;;;2.10;;
42616;SDS011;28250;52.320;0.360;2022-08-24T04:36:46;3.50;;;2.40;;
42616;SDS011;28250;52.320;0.360;2022-08-24T04:39:14;2.97;;;1.88;;
42616;SDS011;28250;52.320;0.360;2022-08-24T04:41:59;6.68;;;2.00;;
42616;SDS011;28250;52.320;0.360;2022-08-24T04:44:29;2.30;;;2.03;;
42616;SDS011;28250;52.320;0.360;2022-08-24T04:46:57;2.35;;;1.88;;
42616;SDS011;28250;52.320;0.360;2022-08-24T04:49:24;1.73;;;1.58;;
42616;SDS011;28250;52.320;0.360;2022-08-24T04:51:52;2.08;;;1.52;;
42616;SDS011;28250;52.320;0.360;2022-08-24T04:54:18;2.20;;;1.92;;
42616;SDS011;28250;52.320;0.360;2022-08-24T04:56:54;2.75;;;2.40;;
42616;SDS011;28250;52.320;0.360;2022-08-24T04:59:21;4.18;;;2.15;;
42616;SDS011;28250;52.320;0.360;2022-08-24T05:01:47;2.38;;;1.92;;
42616;SDS011;28250;52.320;0.360;2022-08-24T05:04:14;2.83;;;1.98;;
42616;SDS011;28250;52.320;0.360;2022-08-24T05:06:41;1.77;;;1.67;;
42616;SDS011;28250;52.320;0.360;2022-08-24T05:09:08;2.30;;;2.03;;
42616;SDS011;28250;52.320;0.360;2022-08-24T05:11:37;2.63;;;2.10;;
42616;SDS011;28250;52.320;0.360;2022-08-24T05:14:05;2.47;;;2.28;;
42616;SDS011;28250;52.320;0.360;2022-08-24T05:16:32;2.22;;;2.03;;
42616;SDS011;28250;52.320;0.360;2022-08-24T05:19:02;2.65;;;2.20;;
42616;SDS011;28250;52.320;0.360;2022-08-24T05:21:32;3.28;;;2.13;;
42616;SDS011;28250;52.320;0.360;2022-08-24T05:23:59;2.97;;;2.40;;
42616;SDS011;28250;52.320;0.360;2022-08-24T05:26:30;3.67;;;2.03;;
42616;SDS011;28250;52.320;0.360;2022-08-24T05:28:59;3.33;;;1.80;;
42616;SDS011;28250;52.320;0.360;2022-08-24T05:31:35;2.38;;;2.17;;
42616;SDS011;28250;52.320;0.360;2022-08-24T05:34:08;2.58;;;1.63;;
42616;SDS011;28250;52.320;0.360;2022-08-24T05:36:35;2.23;;;1.33;;
42616;SDS011;28250;52.320;0.360;2022-08-24T05:39:07;2.17;;;1.27;;
42616;SDS011;28250;52.320;0.360;2022-08-24T05:41:38;1.80;;;1.70;;
42616;SDS011;28250;52.320;0.360;2022-08-24T05:44:13;1.55;;;1.30;;
42616;SDS011;28250;52.320;0.360;2022-08-24T05:46:41;1.50;;;1.40;;
42616;SDS011;28250;52.320;0.360;2022-08-24T05:49:09;2.80;;;1.50;;
42616;SDS011;28250;52.320;0.360;2022-08-24T05:51:37;2.00;;;1.70;;
42616;SDS011;28250;52.320;0.360;2022-08-24T05:54:08;2.22;;;1.63;;
42616;SDS011;28250;52.320;0.360;2022-08-24T05:56:54;1.55;;;1.40;;
42616;SDS011;28250;52.320;0.360;2022-08-24T05:59:26;2.40;;;1.50;;
42616;SDS011;28250;52.320;0.360;2022-08-24T06:01:53;1.52;;;1.20;;
42616;SDS011;28250;52.320;0.360;2022-08-24T06:04:20;3.30;;;1.55;;
42616;SDS011;28250;52.320;0.360;2022-08-24T06:06:47;1.65;;;1.40;;
42616;SDS011;28250;52.320;0.360;2022-08-24T06:09:16;1.55;;;1.20;;
42616;SDS011;28250;52.320;0.360;2022-08-24T06:11:43;4.28;;;1.90;;
42616;SDS011;28250;52.320;0.360;2022-08-24T06:14:14;1.27;;;1.10;;
42616;SDS011;28250;52.320;0.360;2022-08-24T06:16:50;1.50;;;0.98;;
42616;SDS011;28250;52.320;0.360;2022-08-24T06:19:19;1.58;;;1.17;;
42616;SDS011;28250;52.320;0.360;2022-08-24T06:21:47;2.80;;;0.93;;
42616;SDS011;28250;52.320;0.360;2022-08-24T06:24:18;2.05;;;1.10;;
42616;SDS011;28250;52.320;0.360;2022-08-24T06:27:11;1.13;;;0.95;;
42616;SDS011;28250;52.320;0.360;2022-08-24T06:29:59;2.90;;;1.15;;
42616;SDS011;28250;52.320;0.360;2022-08-24T06:33:00;1.17;;;1.00;;
42616;SDS011;28250;52.320;0.360;2022-08-24T06:35:37;1.52;;;1.30;;
42616;SDS011;28250;52.320;0.360;2022-08-24T06:38:05;1.27;;;1.17;;
42616;SDS011;28250;52.320;0.360;2022-08-24T06:40:32;0.98;;;0.88;;
42616;SDS011;28250;52.320;0.360;2022-08-24T06:43:01;1.17;;;0.70;;
42616;SDS011;28250;52.320;0.360;2022-08-24T06:45:39;1.02;;;0.82;;
42616;SDS011;28250;52.320;0.360;2022-08-24T06:48:07;2.72;;;1.35;;
42616;SDS011;28250;52.320;0.360;2022-08-24T06:50:34;1.70;;;0.90;;
42616;SDS011;28250;52.320;0.360;2022-08-24T06:53:01;1.88;;;1.25;;
42616;SDS011;28250;52.320;0.360;2022-08-24T06:55:31;2.55;;;1.15;;
42616;SDS011;28250;52.320;0.360;2022-08-24T06:57:58;1.98;;;1.27;;
42616;SDS011;28250;52.320;0.360;2022-08-24T07:00:27;2.40;;;1.23;;
42616;SDS011;28250;52.320;0.360;2022-08-24T07:02:55;1.80;;;0.88;;
42616;SDS011;28250;52.320;0.360;2022-08-24T07:05:22;5.13;;;1.67;;
42616;SDS011;28250;52.320;0.360;2022-08-24T07:08:15;0.80;;;0.75;;
42616;SDS011;28250;52.320;0.360;2022-08-24T07:10:43;1.15;;;0.98;;
42616;SDS011;28250;52.320;0.360;2022-08-24T07:13:10;1.45;;;1.25;;
42616;SDS011;28250;52.320;0.360;2022-08-24T07:15:39;1.48;;;1.00;;
42616;SDS011;28250;52.320;0.360;2022-08-24T07:18:13;2.58;;;1.38;;
42616;SDS011;28250;52.320;0.360;2022-08-24T07:20:44;1.65;;;1.30;;
42616;SDS011;28250;52.320;0.360;2022-08-24T07:23:17;1.33;;;1.23;;
42616;SDS011;28250;52.320;0.360;2022-08-24T07:25:45;2.67;;;1.20;;
42616;SDS011;28250;52.320;0.360;2022-08-24T07:28:13;1.13;;;1.02;;
42616;SDS011;28250;52.320;0.360;2022-08-24T07:30:40;2.30;;;1.13;;
42616;SDS011;28250;52.320;0.360;2022-08-24T07:33:07;1.25;;;0.90;;
42616;SDS011;28250;52.320;0.360;2022-08-24T07:35:36;1.75;;;1.13;;
42616;SDS011;28250;52.320;0.360;2022-08-24T07:38:04;1.05;;;0.80;;
42616;SDS011;28250;52.320;0.360;2022-08-24T07:40:32;0.95;;;0.70;;
42616;SDS011;28250;52.320;0.360;2022-08-24T07:43:01;1.75;;;0.60;;
42616;SDS011;28250;52.320;0.360;2022-08-24T07:45:28;1.05;;;0.70;;
42616;SDS011;28250;52.320;0.360;2022-08-24T07:47:56;3.25;;;0.80;;
42616;SDS011;28250;52.320;0.360;2022-08-24T07:50:33;2.08;;;0.65;;
42616;SDS011;28250;52.320;0.360;2022-08-24T07:53:00;4.18;;;0.82;;
42616;SDS011;28250;52.320;0.360;2022-08-24T07:55:27;2.55;;;0.95;;
42616;SDS011;28250;52.320;0.360;2022-08-24T07:57:54;2.28;;;1.35;;
42616;SDS011;28250;52.320;0.360;2022-08-24T08:00:21;1.40;;;1.20;;
42616;SDS011;28250;52.320;0.360;2022-08-24T08:02:53;3.90;;;1.30;;
42616;SDS011;28250;52.320;0.360;2022-08-24T08:05:21;2.33;;;1.20;;
42616;SDS011;28250;52.320;0.360;2022-08-24T08:07:51;2.05;;;1.00;;
42616;SDS011;28250;52.320;0.360;2022-08-24T08:10:18;1.75;;;1.10;;
42616;SDS011;28250;52.320;0.360;2022-08-24T08:12:49;3.10;;;1.00;;
42616;SDS011;28250;52.320;0.360;2022-08-24T08:15:16;1.20;;;1.10;;
42616;SDS011;28250;52.320;0.360;2022-08-24T08:17:54;1.48;;;1.00;;
42616;SDS011;28250;52.320;0.360;2022-08-24T08:20:22;1.65;;;1.00;;
42616;SDS011;28250;52.320;0.360;2022-08-24T08:22:49;2.75;;;1.25;;
42616;SDS011;28250;52.320;0.360;2022-08-24T08:25:37;1.70;;;1.10;;
42616;SDS011;28250;52.320;0.360;2022-08-24T08:28:09;2.38;;;1.00;;
42616;SDS011;28250;52.320;0.360;2022-08-24T08:30:36;1.02;;;1.00;;
42616;SDS011;28250;52.320;0.360;2022-08-24T08:33:03;1.30;;;1.10;;
42616;SDS011;28250;52.320;0.360;2022-08-24T08:35:29;1.90;;;0.90;;
42616;SDS011;28250;52.320;0.360;2022-08-24T08:37:58;2.72;;;1.10;;
42616;SDS011;28250;52.320;0.360;2022-08-24T08:40:30;2.17;;;0.88;;
42616;SDS011;28250;52.320;0.360;2022-08-24T08:54:43;2.53;;;1.20;;
42616;SDS011;28250;52.320;0.360;2022-08-24T09:00:17;1.38;;;1.27;;
42616;SDS011;28250;52.320;0.360;2022-08-24T09:23:10;3.38;;;2.40;;
42616;SDS011;28250;52.320;0.360;2022-08-24T09:35:03;2.50;;;2.30;;
42616;SDS011;28250;52.320;0.360;2022-08-24T09:40:41;3.67;;;2.50;;
42616;SDS011;28250;52.320;0.360;2022-08-24T10:15:04;1.27;;;1.10;;
42616;SDS011;28250;52.320;0.360;2022-08-24T10:20:44;2.17;;;1.10;;
42616;SDS011;28250;52.320;0.360;2022-08-24T10:23:49;2.30;;;1.58;;
42616;SDS011;28250;52.320;0.360;2022-08-24T10:26:56;1.10;;;0.70;;
42616;SDS011;28250;52.320;0.360;2022-08-24T10:33:20;1.90;;;1.00;;
42616;SDS011;28250;52.320;0.360;2022-08-24T10:53:54;2.25;;;0.60;;
42616;SDS011;28250;52.320;0.360;2022-08-24T10:56:28;1.90;;;0.80;;
42616;SDS011;28250;52.320;0.360;2022-08-24T10:59:22;1.98;;;0.90;;
42616;SDS011;28250;52.320;0.360;2022-08-24T11:01:59;2.70;;;0.75;;
42616;SDS011;28250;52.320;0.360;2022-08-24T11:04:31;1.02;;;0.80;;
42616;SDS011;28250;52.320;0.360;2022-08-24T11:12:21;1.23;;;1.02;;
42616;SDS011;28250;52.320;0.360;2022-08-24T11:14:53;1.30;;;0.98;;
42616;SDS011;28250;52.320;0.360;2022-08-24T11:17:25;1.83;;;1.13;;
42616;SDS011;28250;52.320;0.360;2022-08-24T11:19:55;1.02;;;0.90;;
42616;SDS011;28250;52.320;0.360;2022-08-24T11:22:26;0.93;;;0.80;;
42616;SDS011;28250;52.320;0.360;2022-08-24T11:25:01;1.10;;;0.90;;
42616;SDS011;28250;52.320;0.360;2022-08-24T11:27:36;1.00;;;0.90;;
42616;SDS011;28250;52.320;0.360;2022-08-24T11:30:09;3.17;;;1.00;;
42616;SDS011;28250;52.320;0.360;2022-08-24T11:32:54;1.13;;;0.80;;
42616;SDS011;28250;52.320;0.360;2022-08-24T11:37:50;1.23;;;0.82;;
42616;SDS011;28250;52.320;0.360;2022-08-24T11:40:24;0.65;;;0.63;;
42616;SDS011;28250;52.320;0.360;2022-08-24T11:43:16;1.13;;;0.63;;
42616;SDS011;28250;52.320;0.360;2022-08-24T11:46:01;1.45;;;1.13;;
42616;SDS011;28250;52.320;0.360;2022-08-24T11:48:51;0.85;;;0.80;;
42616;SDS011;28250;52.320;0.360;2022-08-24T11:59:36;1.20;;;0.68;;
42616;SDS011;28250;52.320;0.360;2022-08-24T12:02:39;0.60;;;0.60;;
42616;SDS011;28250;52.320;0.360;2022-08-24T12:10:44;1.05;;;0.43;;
42616;SDS011;28250;52.320;0.360;2022-08-24T12:13:36;1.52;;;0.60;;
42616;SDS011;28250;52.320;0.360;2022-08-24T12:19:23;1.10;;;0.60;;
42616;SDS011;28250;52.320;0.360;2022-08-24T12:22:00;0.70;;;0.45;;
42616;SDS011;28250;52.320;0.360;2022-08-24T12:24:33;0.40;;;0.40;;
42616;SDS011;28250;52.320;0.360;2022-08-24T12:27:09;1.52;;;0.70;;
42616;SDS011;28250;52.320;0.360;2022-08-24T12:29:44;1.85;;;0.80;;
42616;SDS011;28250;52.320;0.360;2022-08-24T12:32:18;1.23;;;0.63;;
42616;SDS011;28250;52.320;0.360;2022-08-24T12:37:37;0.85;;;0.50;;
42616;SDS011;28250;52.320;0.360;2022-08-24T12:46:03;1.13;;;0.60;;
42616;SDS011;28250;52.320;0.360;2022-08-24T12:48:34;1.73;;;0.80;;
42616;SDS011;28250;52.320;0.360;2022-08-24T12:54:17;1.83;;;0.60;;
42616;SDS011;28250;52.320;0.360;2022-08-24T12:57:07;2.85;;;0.70;;
42616;SDS011;28250;52.320;0.360;2022-08-24T13:00:12;1.23;;;0.70;;
42616;SDS011;28250;52.320;0.360;2022-08-24T13:02:54;0.95;;;0.60;;
42616;SDS011;28250;52.320;0.360;2022-08-24T13:05:37;0.63;;;0.55;;
42616;SDS011;28250;52.320;0.360;2022-08-24T13:08:09;1.88;;;0.50;;
42616;SDS011;28250;52.320;0.360;2022-08-24T13:10:42;0.82;;;0.60;;
42616;SDS011;28250;52.320;0.360;2022-08-24T13:13:20;1.65;;;0.50;;
42616;SDS011;28250;52.320;0.360;2022-08-24T13:16:07;1.52;;;0.50;;
42616;SDS011;28250;52.320;0.360;2022-08-24T13:21:40;2.08;;;0.50;;
42616;SDS011;28250;52.320;0.360;2022-08-24T13:29:48;0.40;;;0.40;;
42616;SDS011;28250;52.320;0.360;2022-08-24T13:32:28;0.73;;;0.50;;
42616;SDS011;28250;52.320;0.360;2022-08-24T13:44:28;0.82;;;0.60;;
42616;SDS011;28250;52.320;0.360;2022-08-24T13:47:15;0.50;;;0.50;;
42616;SDS011;28250;52.320;0.360;2022-08-24T13:49:55;0.50;;;0.50;;
42616;SDS011;28250;52.320;0.360;2022-08-24T13:58:51;2.20;;;0.50;;
42616;SDS011;28250;52.320;0.360;2022-08-24T14:17:14;1.60;;;0.60;;
42616;SDS011;28250;52.320;0.360;2022-08-24T14:37:39;0.70;;;0.50;;
42616;SDS011;28250;52.320;0.360;2022-08-24T14:40:36;1.50;;;0.50;;
42616;SDS011;28250;52.320;0.360;2022-08-24T15:00:34;0.50;;;0.50;;
42616;SDS011;28250;52.320;0.360;2022-08-24T15:03:46;0.82;;;0.60;;
42616;SDS011;28250;52.320;0.360;2022-08-24T15:06:47;1.00;;;0.60;;
42616;SDS011;28250;52.320;0.360;2022-08-24T15:09:22;0.85;;;0.60;;
42616;SDS011;28250;52.320;0.360;2022-08-24T15:11:55;0.68;;;0.55;;
42616;SDS011;28250;52.320;0.360;2022-08-24T15:14:39;3.65;;;1.33;;
42616;SDS011;28250;52.320;0.360;2022-08-24T15:22:24;2.22;;;0.60;;
42616;SDS011;28250;52.320;0.360;2022-08-24T15:25:09;1.52;;;0.60;;
42616;SDS011;28250;52.320;0.360;2022-08-24T15:27:56;1.50;;;0.60;;
42616;SDS011;28250;52.320;0.360;2022-08-24T15:30:34;2.85;;;0.57;;
42616;SDS011;28250;52.320;0.360;2022-08-24T15:35:38;1.75;;;0.60;;
42616;SDS011;28250;52.320;0.360;2022-08-24T15:38:15;2.13;;;0.70;;
42616;SDS011;28250;52.320;0.360;2022-08-24T15:40:45;0.93;;;0.73;;
42616;SDS011;28250;52.320;0.360;2022-08-24T15:43:15;1.27;;;0.88;;
42616;SDS011;28250;52.320;0.360;2022-08-24T15:45:46;2.58;;;1.00;;
42616;SDS011;28250;52.320;0.360;2022-08-24T15:48:17;1.10;;;0.70;;
42616;SDS011;28250;52.320;0.360;2022-08-24T15:50:49;0.93;;;0.57;;
42616;SDS011;28250;52.320;0.360;2022-08-24T15:55:58;0.70;;;0.50;;
42616;SDS011;28250;52.320;0.360;2022-08-24T15:58:45;0.60;;;0.57;;
42616;SDS011;28250;52.320;0.360;2022-08-24T16:11:47;1.33;;;0.80;;
42616;SDS011;28250;52.320;0.360;2022-08-24T16:17:35;1.10;;;0.50;;
42616;SDS011;28250;52.320;0.360;2022-08-24T16:22:50;0.70;;;0.70;;
42616;SDS011;28250;52.320;0.360;2022-08-24T16:25:27;1.48;;;0.85;;
42616;SDS011;28250;52.320;0.360;2022-08-24T16:30:36;0.68;;;0.68;;
42616;SDS011;28250;52.320;0.360;2022-08-24T16:33:05;1.58;;;0.90;;
42616;SDS011;28250;52.320;0.360;2022-08-24T16:35:32;1.25;;;0.70;;
42616;SDS011;28250;52.320;0.360;2022-08-24T16:37:59;0.95;;;0.77;;
42616;SDS011;28250;52.320;0.360;2022-08-24T16:40:26;2.45;;;0.80;;
42616;SDS011;28250;52.320;0.360;2022-08-24T16:42:53;3.55;;;0.70;;
42616;SDS011;28250;52.320;0.360;2022-08-24T16:45:21;1.10;;;0.80;;
42616;SDS011;28250;52.320;0.360;2022-08-24T16:47:48;1.10;;;0.80;;
42616;SDS011;28250;52.320;0.360;2022-08-24T16:52:44;1.05;;;0.90;;
42616;SDS011;28250;52.320;0.360;2022-08-24T16:55:11;2.15;;;0.70;;
42616;SDS011;28250;52.320;0.360;2022-08-24T17:00:05;0.95;;;0.80;;
42616;SDS011;28250;52.320;0.360;2022-08-24T17:02:37;1.48;;;0.77;;
42616;SDS011;28250;52.320;0.360;2022-08-24T17:05:03;1.52;;;0.70;;
42616;SDS011;28250;52.320;0.360;2022-08-24T17:07:31;2.40;;;0.80;;
42616;SDS011;28250;52.320;0.360;2022-08-24T17:09:59;0.90;;;0.80;;
42616;SDS011;28250;52.320;0.360;2022-08-24T17:12:27;1.85;;;0.75;;
42616;SDS011;28250;52.320;0.360;2022-08-24T17:14:56;0.88;;;0.73;;
42616;SDS011;28250;52.320;0.360;2022-08-24T17:17:23;1.35;;;0.77;;
42616;SDS011;28250;52.320;0.360;2022-08-24T17:19:50;0.80;;;0.77;;
42616;SDS011;28250;52.320;0.360;2022-08-24T17:22:19;1.70;;;0.90;;
42616;SDS011;28250;52.320;0.360;2022-08-24T17:24:48;1.77;;;0.60;;
42616;SDS011;28250;52.320;0.360;2022-08-24T17:27:16;2.10;;;0.90;;
42616;SDS011;28250;52.320;0.360;2022-08-24T17:29:45;1.75;;;0.80;;
42616;SDS011;28250;52.320;0.360;2022-08-24T17:32:12;0.70;;;0.40;;
42616;SDS011;28250;52.320;0.360;2022-08-24T17:34:41;1.02;;;0.75;;
42616;SDS011;28250;52.320;0.360;2022-08-24T17:37:08;0.95;;;0.80;;
42616;SDS011;28250;52.320;0.360;2022-08-24T17:39:35;2.15;;;0.80;;
42616;SDS011;28250;52.320;0.360;2022-08-24T17:42:02;2.15;;;1.00;;
42616;SDS011;28250;52.320;0.360;2022-08-24T17:44:29;4.10;;;1.45;;
42616;SDS011;28250;52.320;0.360;2022-08-24T17:46:58;1.38;;;1.27;;
42616;SDS011;28250;52.320;0.360;2022-08-24T17:49:28;0.90;;;0.77;;
42616;SDS011;28250;52.320;0.360;2022-08-24T17:51:57;1.10;;;0.95;;
42616;SDS011;28250;52.320;0.360;2022-08-24T17:54:24;9.48;;;1.50;;
42616;SDS011;28250;52.320;0.360;2022-08-24T17:56:52;3.60;;;1.50;;
42616;SDS011;28250;52.320;0.360;2022-08-24T18:01:58;3.58;;;1.50;;
42616;SDS011;28250;52.320;0.360;2022-08-24T18:04:28;3.50;;;1.75;;
42616;SDS011;28250;52.320;0.360;2022-08-24T18:06:58;3.80;;;1.60;;
42616;SDS011;28250;52.320;0.360;2022-08-24T18:09:30;2.45;;;1.60;;
42616;SDS011;28250;52.320;0.360;2022-08-24T18:12:00;3.65;;;1.83;;
42616;SDS011;28250;52.320;0.360;2022-08-24T18:14:28;4.13;;;1.67;;
42616;SDS011;28250;52.320;0.360;2022-08-24T18:16:56;2.92;;;1.30;;
42616;SDS011;28250;52.320;0.360;2022-08-24T18:19:27;1.90;;;1.50;;
42616;SDS011;28250;52.320;0.360;2022-08-24T18:21:53;3.08;;;1.38;;
42616;SDS011;28250;52.320;0.360;2022-08-24T18:24:20;2.55;;;1.38;;
42616;SDS011;28250;52.320;0.360;2022-08-24T18:26:46;4.15;;;1.17;;
42616;SDS011;28250;52.320;0.360;2022-08-24T18:29:15;2.75;;;1.10;;
42616;SDS011;28250;52.320;0.360;2022-08-24T18:31:45;1.83;;;0.95;;
42616;SDS011;28250;52.320;0.360;2022-08-24T18:34:17;2.55;;;1.17;;
42616;SDS011;28250;52.320;0.360;2022-08-24T18:36:46;2.15;;;1.10;;
42616;SDS011;28250;52.320;0.360;2022-08-24T18:39:13;3.03;;;1.00;;
42616;SDS011;28250;52.320;0.360;2022-08-24T18:44:09;5.40;;;1.20;;
42616;SDS011;28250;52.320;0.360;2022-08-24T18:46:37;3.63;;;1.17;;
42616;SDS011;28250;52.320;0.360;2022-08-24T18:49:05;2.88;;;1.05;;
42616;SDS011;28250;52.320;0.360;2022-08-24T18:51:32;1.50;;;0.90;;
42616;SDS011;28250;52.320;0.360;2022-08-24T18:54:03;0.75;;;0.65;;
42616;SDS011;28250;52.320;0.360;2022-08-24T18:56:36;0.63;;;0.63;;
42616;SDS011;28250;52.320;0.360;2022-08-24T18:59:03;1.52;;;0.65;;
42616;SDS011;28250;52.320;0.360;2022-08-24T19:01:31;1.95;;;0.80;;
42616;SDS011;28250;52.320;0.360;2022-08-24T19:04:18;2.55;;;1.10;;
42616;SDS011;28250;52.320;0.360;2022-08-24T19:06:45;1.15;;;0.63;;
42616;SDS011;28250;52.320;0.360;2022-08-24T19:09:12;1.27;;;0.98;;
42616;SDS011;28250;52.320;0.360;2022-08-24T19:11:38;2.70;;;0.90;;
42616;SDS011;28250;52.320;0.360;2022-08-24T19:14:05;2.63;;;0.95;;
42616;SDS011;28250;52.320;0.360;2022-08-24T19:16:32;2.50;;;0.75;;
42616;SDS011;28250;52.320;0.360;2022-08-24T19:18:59;2.60;;;1.13;;
42616;SDS011;28250;52.320;0.360;2022-08-24T19:21:26;1.95;;;1.10;;
42616;SDS011;28250;52.320;0.360;2022-08-24T19:23:56;1.67;;;0.95;;
42616;SDS011;28250;52.320;0.360;2022-08-24T19:26:23;2.30;;;0.98;;
42616;SDS011;28250;52.320;0.360;2022-08-24T19:28:50;1.75;;;0.80;;
42616;SDS011;28250;52.320;0.360;2022-08-24T19:31:17;4.85;;;0.82;;
42616;SDS011;28250;52.320;0.360;2022-08-24T19:33:50;1.25;;;0.73;;
42616;SDS011;28250;52.320;0.360;2022-08-24T19:36:17;3.03;;;0.70;;
42616;SDS011;28250;52.320;0.360;2022-08-24T19:38:44;1.48;;;0.90;;
42616;SDS011;28250;52.320;0.360;2022-08-24T19:43:40;0.75;;;0.52;;
42616;SDS011;28250;52.320;0.360;2022-08-24T19:46:26;1.20;;;1.02;;